Atalandi — SVBA — position and weather

sailwx.info

Track history (hours):
 
Tides and Currents Weather Stations Pressure Air Temp Water Temp Dewpoint Dewpoint Depression Visibility Wind Speed Wind Dir Waves Ship Positions

Atalandi

Last reported at 2017-Mar-26 22:34 UTC. Time now 2017-Mar-26 22:58 UTC.
Position N 51°56' E 004°10'.

Length 248 m; draft 13.4 m.

Type: Ship (hazmat cat A). MMSI: 240269000.

Date/timePositionNaut miles runAvg speedWind from/ knotsBaromVisibWave heightAir tempDewpointWater temp
2017-Mar-26 22:34N 51°56' E 004°10'1 1.2
2017-Mar-26 21:33N 51°57' E 004°08'6 5.8
2017-Mar-26 20:33N 51°60' E 003°60'8 8.1
2017-Mar-26 19:33N 51°60' E 003°47'8 8.5
2017-Mar-26 18:33N 51°57' E 003°34'1110.4
2017-Mar-26 17:32N 51°55' E 003°17'1111.2
2017-Mar-26 16:33N 51°52' E 002°60'10 9.7
2017-Mar-26 15:29N 51°54' E 002°43'1010.8
2017-Mar-26 14:33N 52°03' E 002°37'1210.6
2017-Mar-26 13:24N 52°15' E 002°38'910.7
2017-Mar-26 12:33N 52°23' E 002°47'1111.4
2017-Mar-26 11:33N 52°33' E 002°56'1212.5
2017-Mar-26 10:33N 52°44' E 003°06'1414.1
2017-Mar-26 09:33N 52°57' E 003°16'1515.2
2017-Mar-26 08:33N 53°11' E 003°24'1514.6
2017-Mar-26 07:33N 53°25' E 003°31'1312.7
2017-Mar-26 06:31N 53°37' E 003°38'1311.6
2017-Mar-26 05:26N 53°47' E 003°50'1311.9
2017-Mar-26 04:23N 53°55' E 004°07'1212.1
2017-Mar-26 03:21N 54°03' E 004°24'24411.0
2017-Mar-25 05:13N 58°06' E 005°01'1111.9
2017-Mar-25 04:16N 58°15' E 004°50'912.1
2017-Mar-25 03:33N 58°23' E 004°42'1211.9
2017-Mar-25 02:33N 58°33' E 004°30'1211.7
2017-Mar-25 01:33N 58°43' E 004°19'1211.9
2017-Mar-25 00:33N 58°54' E 004°08'1211.8
2017-Mar-24 23:33N 59°05' E 004°01'9511.2
2017-Mar-24 15:04N 60°39' E 004°21'5 9.7
2017-Mar-24 14:33N 60°42' E 004°29'5 5.3
2017-Mar-24 13:33N 60°46' E 004°37'10 9.9
2017-Mar-24 12:33N 60°39' E 004°52'2 1.7
2017-Mar-24 11:32N 60°37' E 004°52'0 0.0
2017-Mar-24 10:32N 60°37' E 004°52'0 0.0
2017-Mar-24 09:29N 60°37' E 004°52'0 0.0
2017-Mar-24 08:32N 60°37' E 004°52'0 0.0
2017-Mar-24 07:32N 60°37' E 004°52'0 0.0
2017-Mar-24 06:32N 60°37' E 004°52'0 0.0
2017-Mar-24 05:32N 60°37' E 004°52'0 0.0
2017-Mar-24 04:32N 60°37' E 004°52'0 0.0
2017-Mar-24 03:32N 60°37' E 004°52'0 0.0
2017-Mar-24 02:32N 60°37' E 004°52'0 0.0
2017-Mar-24 01:32N 60°37' E 004°52'0 0.0
2017-Mar-24 00:32N 60°37' E 004°52'0 0.0
2017-Mar-23 23:32N 60°37' E 004°52'0 0.0
2017-Mar-23 22:32N 60°37' E 004°52'0 0.0
2017-Mar-23 21:32N 60°37' E 004°52'0 0.0
2017-Mar-23 20:32N 60°37' E 004°52'0 0.0
2017-Mar-23 19:32N 60°37' E 004°52'0 0.0
2017-Mar-23 18:32N 60°37' E 004°52'0 0.0
2017-Mar-23 17:32N 60°37' E 004°52'0 0.0
2017-Mar-23 16:32N 60°37' E 004°52'0 0.0
2017-Mar-23 15:08N 60°37' E 004°52'0 0.0
2017-Mar-23 14:32N 60°37' E 004°52'0 0.0
2017-Mar-23 13:32N 60°37' E 004°52'0 0.0
2017-Mar-23 12:32N 60°37' E 004°52'0 0.0
2017-Mar-23 11:33N 60°37' E 004°52'3 3.3
2017-Mar-23 10:34N 60°40' E 004°50'1010.0
2017-Mar-23 09:33N 60°45' E 004°32'7 5.6
2017-Mar-23 08:20N 60°46' E 004°18'127 6.3
2017-Mar-22 12:21N 58°40' E 004°28'911.5
2017-Mar-22 11:34N 58°32' E 004°35'1212.0
2017-Mar-22 10:33N 58°21' E 004°45'40410.8
2017-Mar-20 21:13N 51°47' E 002°12'1014.2
2017-Mar-20 20:33N 51°39' E 002°03'1313.5
2017-Mar-20 19:33N 51°34' E 001°43'9 8.6
2017-Mar-20 18:32N 51°33' E 001°29'0 0.1
2017-Mar-20 17:32N 51°33' E 001°29'0 0.0
2017-Mar-20 16:32N 51°33' E 001°29'0 0.0
2017-Mar-20 15:32N 51°33' E 001°29'0 0.0
2017-Mar-20 14:32N 51°33' E 001°29'0 0.0
2017-Mar-20 13:32N 51°33' E 001°29'3 3.4
2017-Mar-20 12:34N 51°32' E 001°35'1211.7
2017-Mar-20 11:34N 51°31' E 001°53'1111.0
2017-Mar-20 10:33N 51°22' E 002°02'1313.1
2017-Mar-20 09:33N 51°12' E 001°48'1313.3
2017-Mar-20 08:33N 51°02' E 001°35'1413.5
2017-Mar-20 07:33N 50°50' E 001°25'4412.6
2017-Mar-20 04:04N 50°25' E 000°28'713.5
2017-Mar-20 03:33N 50°24' E 000°17'1413.8
2017-Mar-20 02:33N 50°20' W 000°04'1413.4
2017-Mar-20 01:30N 50°27' W 000°23'1314.2
2017-Mar-20 00:34N 50°33' W 000°42'1312.8
2017-Mar-19 23:33N 50°41' W 000°58'1414.0
2017-Mar-19 22:33N 50°47' W 001°18'4 2.9
2017-Mar-19 21:20N 50°50' W 001°20'0 0.0
2017-Mar-19 20:32N 50°50' W 001°20'0 0.0
2017-Mar-19 19:32N 50°50' W 001°20'0 0.0
2017-Mar-19 18:32N 50°50' W 001°20'0 0.0
2017-Mar-19 17:29N 50°50' W 001°20'0 0.0
2017-Mar-19 16:32N 50°50' W 001°20'0 0.0
2017-Mar-19 15:32N 50°50' W 001°20'0 0.0
2017-Mar-19 14:32N 50°50' W 001°20'0 0.0
2017-Mar-19 13:32N 50°50' W 001°20'0 0.0
2017-Mar-19 12:32N 50°50' W 001°20'0 0.0
2017-Mar-19 11:32N 50°50' W 001°20'0 0.0
2017-Mar-19 10:32N 50°50' W 001°20'0 0.0
2017-Mar-19 09:29N 50°50' W 001°20'0 0.0
2017-Mar-19 08:32N 50°50' W 001°20'0 0.0
2017-Mar-19 07:32N 50°50' W 001°20'0 0.0
2017-Mar-19 06:32N 50°50' W 001°20'0 0.0
2017-Mar-19 05:32N 50°50' W 001°20'0 0.0
2017-Mar-19 04:32N 50°50' W 001°20'0 0.0
2017-Mar-19 03:32N 50°50' W 001°20'0 0.0
2017-Mar-19 02:32N 50°50' W 001°20'0 0.0
2017-Mar-19 01:32N 50°50' W 001°20'0 0.0
2017-Mar-19 00:29N 50°50' W 001°20'0 0.0
2017-Mar-18 23:29N 50°50' W 001°20'0 0.0
2017-Mar-18 22:32N 50°50' W 001°20'0 0.0
2017-Mar-18 21:32N 50°50' W 001°20'0 0.0
2017-Mar-18 20:32N 50°50' W 001°20'0 0.0
2017-Mar-18 19:08N 50°50' W 001°20'0 0.0
2017-Mar-18 18:32N 50°50' W 001°20'0 0.0
2017-Mar-18 17:32N 50°50' W 001°20'0 0.0
2017-Mar-18 16:32N 50°50' W 001°20'0 0.0
2017-Mar-18 15:32N 50°50' W 001°20'0 0.0
2017-Mar-18 14:32N 50°50' W 001°20'0 0.0
2017-Mar-18 13:32N 50°50' W 001°20'0 0.0
2017-Mar-18 12:32N 50°50' W 001°20'0 0.0
2017-Mar-18 11:32N 50°50' W 001°20'0 0.0
2017-Mar-18 10:32N 50°50' W 001°20'0 0.0
2017-Mar-18 09:32N 50°50' W 001°20'0 0.0
2017-Mar-18 08:32N 50°50' W 001°20'1 0.7
2017-Mar-18 07:33N 50°50' W 001°19'7 7.0
2017-Mar-18 06:34N 50°46' W 001°10'1010.3
2017-Mar-18 05:33N 50°40' W 000°56'6 6.1
2017-Mar-18 04:33N 50°34' W 000°57'4 3.9
2017-Mar-18 03:33N 50°31' W 001°01'2 2.5
2017-Mar-18 02:33N 50°29' W 000°58'2 2.4
2017-Mar-18 01:33N 50°30' W 000°54'3 2.7
2017-Mar-18 00:33N 50°31' W 000°50'2 2.3
2017-Mar-17 23:33N 50°31' W 000°47'2 1.9
2017-Mar-17 22:33N 50°32' W 000°44'2 2.3
2017-Mar-17 21:33N 50°35' W 000°44'7 7.2
2017-Mar-17 20:33N 50°31' W 000°54'5 5.3
2017-Mar-17 19:33N 50°35' W 001°00'2 1.9
2017-Mar-17 18:31N 50°36' W 001°03'0 0.0
2017-Mar-17 17:31N 50°36' W 001°03'0 0.0
2017-Mar-17 16:31N 50°36' W 001°03'0 0.0
2017-Mar-17 15:31N 50°36' W 001°03'0 0.2
2017-Mar-17 14:31N 50°36' W 001°03'0 0.3
2017-Mar-17 13:31N 50°36' W 001°02'0 0.0
2017-Mar-17 12:31N 50°36' W 001°02'0 0.0
2017-Mar-17 11:31N 50°36' W 001°02'0 0.0
2017-Mar-17 10:31N 50°36' W 001°02'0 0.0
2017-Mar-17 09:31N 50°36' W 001°02'0 0.0
2017-Mar-17 08:31N 50°36' W 001°02'0 0.2
2017-Mar-17 07:31N 50°36' W 001°03'0 0.1
2017-Mar-17 06:31N 50°36' W 001°03'0 0.0
2017-Mar-17 05:31N 50°36' W 001°03'0 0.0
2017-Mar-17 04:31N 50°36' W 001°03'0 0.0
2017-Mar-17 03:31N 50°36' W 001°03'0 0.0
2017-Mar-17 02:31N 50°36' W 001°03'0 0.3
2017-Mar-17 01:31N 50°36' W 001°02'0 0.2
2017-Mar-17 00:31N 50°36' W 001°02'0 0.0
2017-Mar-16 23:31N 50°36' W 001°02'  
Track history (hours):
 
Tides and Currents Weather Stations Pressure Air Temp Water Temp Dewpoint Dewpoint Depression Visibility Wind Speed Wind Dir Waves Ship Positions

Atalandi

Last reported at 2017-Mar-26 22:34 UTC. Time now 2017-Mar-26 22:58 UTC.
Position N 51°56' E 004°10'.

Length 248 m; draft 13.4 m.

Type: Ship (hazmat cat A). MMSI: 240269000.

Date/timePositionNaut miles runAvg speedWind from/ knotsBaromVisibWave heightAir tempDewpointWater temp
2017-Mar-26 22:34N 51°56' E 004°10'1 1.2
2017-Mar-26 21:33N 51°57' E 004°08'6 5.8
2017-Mar-26 20:33N 51°60' E 003°60'8 8.1
2017-Mar-26 19:33N 51°60' E 003°47'8 8.5
2017-Mar-26 18:33N 51°57' E 003°34'1110.4
2017-Mar-26 17:32N 51°55' E 003°17'1111.2
2017-Mar-26 16:33N 51°52' E 002°60'10 9.7
2017-Mar-26 15:29N 51°54' E 002°43'1010.8
2017-Mar-26 14:33N 52°03' E 002°37'1210.6
2017-Mar-26 13:24N 52°15' E 002°38'910.7
2017-Mar-26 12:33N 52°23' E 002°47'1111.4
2017-Mar-26 11:33N 52°33' E 002°56'1212.5
2017-Mar-26 10:33N 52°44' E 003°06'1414.1
2017-Mar-26 09:33N 52°57' E 003°16'1515.2
2017-Mar-26 08:33N 53°11' E 003°24'1514.6
2017-Mar-26 07:33N 53°25' E 003°31'1312.7
2017-Mar-26 06:31N 53°37' E 003°38'1311.6
2017-Mar-26 05:26N 53°47' E 003°50'1311.9
2017-Mar-26 04:23N 53°55' E 004°07'1212.1
2017-Mar-26 03:21N 54°03' E 004°24'24411.0
2017-Mar-25 05:13N 58°06' E 005°01'1111.9
2017-Mar-25 04:16N 58°15' E 004°50'912.1
2017-Mar-25 03:33N 58°23' E 004°42'1211.9
2017-Mar-25 02:33N 58°33' E 004°30'1211.7
2017-Mar-25 01:33N 58°43' E 004°19'1211.9
2017-Mar-25 00:33N 58°54' E 004°08'1211.8
2017-Mar-24 23:33N 59°05' E 004°01'9511.2
2017-Mar-24 15:04N 60°39' E 004°21'5 9.7
2017-Mar-24 14:33N 60°42' E 004°29'5 5.3
2017-Mar-24 13:33N 60°46' E 004°37'10 9.9
2017-Mar-24 12:33N 60°39' E 004°52'2 1.7
2017-Mar-24 11:32N 60°37' E 004°52'0 0.0
2017-Mar-24 10:32N 60°37' E 004°52'0 0.0
2017-Mar-24 09:29N 60°37' E 004°52'0 0.0
2017-Mar-24 08:32N 60°37' E 004°52'0 0.0
2017-Mar-24 07:32N 60°37' E 004°52'0 0.0
2017-Mar-24 06:32N 60°37' E 004°52'0 0.0
2017-Mar-24 05:32N 60°37' E 004°52'0 0.0
2017-Mar-24 04:32N 60°37' E 004°52'0 0.0
2017-Mar-24 03:32N 60°37' E 004°52'0 0.0
2017-Mar-24 02:32N 60°37' E 004°52'0 0.0
2017-Mar-24 01:32N 60°37' E 004°52'0 0.0
2017-Mar-24 00:32N 60°37' E 004°52'0 0.0
2017-Mar-23 23:32N 60°37' E 004°52'0 0.0
2017-Mar-23 22:32N 60°37' E 004°52'0 0.0
2017-Mar-23 21:32N 60°37' E 004°52'0 0.0
2017-Mar-23 20:32N 60°37' E 004°52'0 0.0
2017-Mar-23 19:32N 60°37' E 004°52'0 0.0
2017-Mar-23 18:32N 60°37' E 004°52'0 0.0
2017-Mar-23 17:32N 60°37' E 004°52'0 0.0
2017-Mar-23 16:32N 60°37' E 004°52'0 0.0
2017-Mar-23 15:08N 60°37' E 004°52'0 0.0
2017-Mar-23 14:32N 60°37' E 004°52'0 0.0
2017-Mar-23 13:32N 60°37' E 004°52'0 0.0
2017-Mar-23 12:32N 60°37' E 004°52'0 0.0
2017-Mar-23 11:33N 60°37' E 004°52'3 3.3
2017-Mar-23 10:34N 60°40' E 004°50'1010.0
2017-Mar-23 09:33N 60°45' E 004°32'7 5.6
2017-Mar-23 08:20N 60°46' E 004°18'127 6.3
2017-Mar-22 12:21N 58°40' E 004°28'911.5
2017-Mar-22 11:34N 58°32' E 004°35'1212.0
2017-Mar-22 10:33N 58°21' E 004°45'40410.8
2017-Mar-20 21:13N 51°47' E 002°12'1014.2
2017-Mar-20 20:33N 51°39' E 002°03'1313.5
2017-Mar-20 19:33N 51°34' E 001°43'9 8.6
2017-Mar-20 18:32N 51°33' E 001°29'0 0.1
2017-Mar-20 17:32N 51°33' E 001°29'0 0.0
2017-Mar-20 16:32N 51°33' E 001°29'0 0.0
2017-Mar-20 15:32N 51°33' E 001°29'0 0.0
2017-Mar-20 14:32N 51°33' E 001°29'0 0.0
2017-Mar-20 13:32N 51°33' E 001°29'3 3.4
2017-Mar-20 12:34N 51°32' E 001°35'1211.7
2017-Mar-20 11:34N 51°31' E 001°53'1111.0
2017-Mar-20 10:33N 51°22' E 002°02'1313.1
2017-Mar-20 09:33N 51°12' E 001°48'1313.3
2017-Mar-20 08:33N 51°02' E 001°35'1413.5
2017-Mar-20 07:33N 50°50' E 001°25'4412.6
2017-Mar-20 04:04N 50°25' E 000°28'713.5
2017-Mar-20 03:33N 50°24' E 000°17'1413.8
2017-Mar-20 02:33N 50°20' W 000°04'1413.4
2017-Mar-20 01:30N 50°27' W 000°23'1314.2
2017-Mar-20 00:34N 50°33' W 000°42'1312.8
2017-Mar-19 23:33N 50°41' W 000°58'1414.0
2017-Mar-19 22:33N 50°47' W 001°18'4 2.9
2017-Mar-19 21:20N 50°50' W 001°20'0 0.0
2017-Mar-19 20:32N 50°50' W 001°20'0 0.0
2017-Mar-19 19:32N 50°50' W 001°20'0 0.0
2017-Mar-19 18:32N 50°50' W 001°20'0 0.0
2017-Mar-19 17:29N 50°50' W 001°20'0 0.0
2017-Mar-19 16:32N 50°50' W 001°20'0 0.0
2017-Mar-19 15:32N 50°50' W 001°20'0 0.0
2017-Mar-19 14:32N 50°50' W 001°20'0 0.0
2017-Mar-19 13:32N 50°50' W 001°20'0 0.0
2017-Mar-19 12:32N 50°50' W 001°20'0 0.0
2017-Mar-19 11:32N 50°50' W 001°20'0 0.0
2017-Mar-19 10:32N 50°50' W 001°20'0 0.0
2017-Mar-19 09:29N 50°50' W 001°20'0 0.0
2017-Mar-19 08:32N 50°50' W 001°20'0 0.0
2017-Mar-19 07:32N 50°50' W 001°20'0 0.0
2017-Mar-19 06:32N 50°50' W 001°20'0 0.0
2017-Mar-19 05:32N 50°50' W 001°20'0 0.0
2017-Mar-19 04:32N 50°50' W 001°20'0 0.0
2017-Mar-19 03:32N 50°50' W 001°20'0 0.0
2017-Mar-19 02:32N 50°50' W 001°20'0 0.0
2017-Mar-19 01:32N 50°50' W 001°20'0 0.0
2017-Mar-19 00:29N 50°50' W 001°20'0 0.0
2017-Mar-18 23:29N 50°50' W 001°20'0 0.0
2017-Mar-18 22:32N 50°50' W 001°20'0 0.0
2017-Mar-18 21:32N 50°50' W 001°20'0 0.0
2017-Mar-18 20:32N 50°50' W 001°20'0 0.0
2017-Mar-18 19:08N 50°50' W 001°20'0 0.0
2017-Mar-18 18:32N 50°50' W 001°20'0 0.0
2017-Mar-18 17:32N 50°50' W 001°20'0 0.0
2017-Mar-18 16:32N 50°50' W 001°20'0 0.0
2017-Mar-18 15:32N 50°50' W 001°20'0 0.0
2017-Mar-18 14:32N 50°50' W 001°20'0 0.0
2017-Mar-18 13:32N 50°50' W 001°20'0 0.0
2017-Mar-18 12:32N 50°50' W 001°20'0 0.0
2017-Mar-18 11:32N 50°50' W 001°20'0 0.0
2017-Mar-18 10:32N 50°50' W 001°20'0 0.0
2017-Mar-18 09:32N 50°50' W 001°20'0 0.0
2017-Mar-18 08:32N 50°50' W 001°20'1 0.7
2017-Mar-18 07:33N 50°50' W 001°19'7 7.0
2017-Mar-18 06:34N 50°46' W 001°10'1010.3
2017-Mar-18 05:33N 50°40' W 000°56'6 6.1
2017-Mar-18 04:33N 50°34' W 000°57'4 3.9
2017-Mar-18 03:33N 50°31' W 001°01'2 2.5
2017-Mar-18 02:33N 50°29' W 000°58'2 2.4
2017-Mar-18 01:33N 50°30' W 000°54'3 2.7
2017-Mar-18 00:33N 50°31' W 000°50'2 2.3
2017-Mar-17 23:33N 50°31' W 000°47'2 1.9
2017-Mar-17 22:33N 50°32' W 000°44'2 2.3
2017-Mar-17 21:33N 50°35' W 000°44'7 7.2
2017-Mar-17 20:33N 50°31' W 000°54'5 5.3
2017-Mar-17 19:33N 50°35' W 001°00'2 1.9
2017-Mar-17 18:31N 50°36' W 001°03'0 0.0
2017-Mar-17 17:31N 50°36' W 001°03'0 0.0
2017-Mar-17 16:31N 50°36' W 001°03'0 0.0
2017-Mar-17 15:31N 50°36' W 001°03'0 0.2
2017-Mar-17 14:31N 50°36' W 001°03'0 0.3
2017-Mar-17 13:31N 50°36' W 001°02'0 0.0
2017-Mar-17 12:31N 50°36' W 001°02'0 0.0
2017-Mar-17 11:31N 50°36' W 001°02'0 0.0
2017-Mar-17 10:31N 50°36' W 001°02'0 0.0
2017-Mar-17 09:31N 50°36' W 001°02'0 0.0
2017-Mar-17 08:31N 50°36' W 001°02'0 0.2
2017-Mar-17 07:31N 50°36' W 001°03'0 0.1
2017-Mar-17 06:31N 50°36' W 001°03'0 0.0
2017-Mar-17 05:31N 50°36' W 001°03'0 0.0
2017-Mar-17 04:31N 50°36' W 001°03'0 0.0
2017-Mar-17 03:31N 50°36' W 001°03'0 0.0
2017-Mar-17 02:31N 50°36' W 001°03'0 0.3
2017-Mar-17 01:31N 50°36' W 001°02'0 0.2
2017-Mar-17 00:31N 50°36' W 001°02'0 0.0
2017-Mar-16 23:31N 50°36' W 001°02'  

Dump ship's entire track history